Time;durP1;ratioP1;P1;durP2;ratioP2;P2;SDS_P1;SDS_P2;PMS_P1;PMS_P2;Temp;Humidity;BMP_temperature;BMP_pressure;BME280_temperature;BME280_humidity;BME280_pressure;Samples;Min_cycle;Max_cycle;Signal;HPM_P1;HPM_P2
2022/08/11 00:01:25;;;;;;;;;13.25;12.00;;;;;27.42;31.93;101607.81;5061618;28;45644;-60
2022/08/11 00:04:02;;;;;;;;;11.50;10.75;;;;;27.41;31.77;101606.09;5063279;27;45374;-60
2022/08/11 00:06:38;;;;;;;;;13.00;12.00;;;;;27.38;32.30;101601.06;5062978;28;45502;-61
2022/08/11 00:09:10;;;;;;;;;12.75;12.00;;;;;27.35;32.00;101601.44;5062795;28;46689;-60
2022/08/11 00:11:45;;;;;;;;;16.00;11.50;;;;;27.27;32.13;101607.72;5062751;28;45449;-60
2022/08/11 00:14:19;;;;;;;;;12.25;11.00;;;;;27.23;32.34;101607.22;5062887;28;45207;-61
2022/08/11 00:17:03;;;;;;;;;13.25;12.25;;;;;27.21;32.27;101603.03;5062658;28;45309;-60
2022/08/11 00:19:33;;;;;;;;;12.25;11.50;;;;;27.20;32.41;101602.19;5061368;28;45636;-60
2022/08/11 00:21:59;;;;;;;;;12.00;12.00;;;;;27.21;32.21;101600.31;5062857;28;45256;-60
2022/08/11 00:24:35;;;;;;;;;14.75;13.50;;;;;27.21;32.50;101603.03;5062653;28;45351;-60
2022/08/11 00:27:02;;;;;;;;;11.75;11.75;;;;;27.18;32.49;101606.09;5050598;28;45584;-60
2022/08/11 00:29:28;;;;;;;;;11.00;11.00;;;;;27.12;32.33;101607.66;5062728;28;46026;-60
2022/08/11 00:31:56;;;;;;;;;14.75;11.50;;;;;27.03;32.61;101603.28;5062010;28;45323;-60
2022/08/11 00:34:28;;;;;;;;;11.75;11.75;;;;;26.96;32.72;101607.72;5062351;28;45430;-60
2022/08/11 00:37:05;;;;;;;;;12.75;11.75;;;;;26.93;32.79;101608.03;5062650;28;45622;-60
2022/08/11 00:39:35;;;;;;;;;12.50;10.75;;;;;26.92;33.02;101609.91;5062415;28;45397;-60
2022/08/11 00:42:37;;;;;;;;;10.75;10.25;;;;;26.90;32.80;101606.56;5061989;28;45443;-60
2022/08/11 00:45:18;;;;;;;;;11.50;11.50;;;;;26.86;32.91;101607.06;5061709;28;45187;-60
2022/08/11 00:47:43;;;;;;;;;13.00;10.00;;;;;26.81;32.96;101607.63;5062848;28;45329;-60
2022/08/11 00:50:15;;;;;;;;;13.50;11.25;;;;;26.77;32.91;101603.56;5062439;28;45340;-60
2022/08/11 00:52:46;;;;;;;;;12.50;12.25;;;;;26.75;33.04;101616.41;5061900;28;45422;-61
2022/08/11 00:55:32;;;;;;;;;12.50;12.50;;;;;26.67;33.05;101619.16;5062442;28;45492;-61
2022/08/11 00:58:03;;;;;;;;;12.75;12.75;;;;;26.59;33.05;101611.91;5062543;28;45577;-60
2022/08/11 01:00:41;;;;;;;;;12.25;10.00;;;;;26.52;33.35;101613.63;5061752;28;45365;-60
2022/08/11 01:03:31;;;;;;;;;12.50;9.50;;;;;26.48;33.56;101612.31;5061607;28;45287;-60
2022/08/11 01:05:56;;;;;;;;;12.50;12.25;;;;;26.44;33.29;101610.97;5062407;28;45509;-60
2022/08/11 01:08:37;;;;;;;;;12.75;11.25;;;;;26.42;33.22;101610.28;5062345;28;45620;-59
2022/08/11 01:11:44;;;;;;;;;11.75;11.50;;;;;26.32;33.47;101606.91;5061818;28;45537;-60
2022/08/11 01:14:22;;;;;;;;;12.75;12.75;;;;;26.25;33.72;101609.47;5061312;28;45677;-60
2022/08/11 01:17:12;;;;;;;;;12.00;11.00;;;;;26.22;33.95;101607.09;5057531;28;45473;-59
2022/08/11 01:19:58;;;;;;;;;15.00;12.25;;;;;26.24;33.94;101604.25;5062199;28;45261;-60
2022/08/11 01:22:52;;;;;;;;;13.25;11.75;;;;;26.23;33.88;101606.09;5062037;28;45436;-60
2022/08/11 01:25:57;;;;;;;;;11.25;11.25;;;;;26.23;33.87;101599.81;5053928;28;45322;-61
2022/08/11 01:28:38;;;;;;;;;9.00;9.00;;;;;26.19;34.01;101596.63;5040924;28;45462;-60
2022/08/11 01:31:10;;;;;;;;;9.75;9.00;;;;;26.16;33.53;101599.69;5061600;28;45364;-60
2022/08/11 01:34:03;;;;;;;;;11.25;11.00;;;;;26.11;33.73;101602.06;5061242;28;45590;-61
2022/08/11 01:37:24;;;;;;;;;10.00;9.00;;;;;26.06;34.09;101602.56;5061892;28;45450;-61
2022/08/11 01:40:14;;;;;;;;;12.00;10.75;;;;;26.00;34.03;101603.28;5019052;28;45307;-60
2022/08/11 01:45:46;;;;;;;;;11.50;11.00;;;;;25.93;34.10;101610.34;5060754;28;45325;-60
2022/08/11 01:48:27;;;;;;;;;10.75;10.50;;;;;25.86;34.07;101604.78;5061781;28;45400;-60
2022/08/11 01:51:23;;;;;;;;;11.50;10.25;;;;;25.79;34.57;101598.38;5057617;28;45377;-60
2022/08/11 01:54:11;;;;;;;;;12.00;10.50;;;;;25.77;34.43;101599.56;5040520;28;45434;-60
2022/08/11 01:56:48;;;;;;;;;10.75;9.00;;;;;25.71;34.04;101606.47;5041310;28;46287;-60
2022/08/11 01:59:23;;;;;;;;;10.50;10.00;;;;;25.68;34.62;101606.81;5047022;28;45393;-59
2022/08/11 02:01:57;;;;;;;;;12.00;11.00;;;;;25.68;34.27;101611.34;5061097;28;45529;-60
2022/08/11 02:04:50;;;;;;;;;8.50;8.50;;;;;25.68;34.59;101605.97;5060516;28;45626;-60
2022/08/11 02:07:40;;;;;;;;;11.00;10.50;;;;;25.70;34.79;101606.63;5065950;28;45323;-60
2022/08/11 02:13:40;;;;;;;;;12.00;10.75;;;;;25.69;34.61;101602.25;5061655;28;45461;-60
2022/08/11 02:16:40;;;;;;;;;14.25;12.50;;;;;25.71;34.61;101597.50;5060992;28;45257;-60
2022/08/11 02:25:42;;;;;;;;;40.25;31.00;;;;;25.79;34.26;101601.09;5033153;28;45456;-59
2022/08/11 02:28:40;;;;;;;;;27.25;21.00;;;;;25.84;35.03;101606.81;5061042;28;45176;-59
2022/08/11 02:34:39;;;;;;;;;53.25;41.25;;;;;25.89;34.57;101601.75;5060698;28;45354;-60
2022/08/11 02:37:23;;;;;;;;;49.25;38.75;;;;;25.87;34.57;101597.53;5051715;28;45746;-61
2022/08/11 02:40:14;;;;;;;;;47.50;36.25;;;;;25.82;34.44;101597.19;5053659;28;46442;-61
2022/08/11 02:42:45;;;;;;;;;37.75;30.75;;;;;25.79;34.59;101600.25;5055827;28;45418;-62
2022/08/11 02:45:11;;;;;;;;;39.75;32.00;;;;;25.76;34.15;101598.72;5055835;28;45398;-61
2022/08/11 02:51:15;;;;;;;;;41.00;32.25;;;;;25.72;34.44;101596.53;5059105;28;45298;-61
2022/08/11 02:54:07;;;;;;;;;39.50;31.25;;;;;25.69;34.37;101597.69;5057163;28;46106;-61
2022/08/11 02:56:43;;;;;;;;;22.50;21.75;;;;;25.68;34.56;101601.41;5053196;28;45313;-61
2022/08/11 03:02:17;;;;;;;;;23.00;21.50;;;;;25.63;34.13;101594.81;5058222;28;45393;-61
2022/08/11 03:05:10;;;;;;;;;20.50;19.25;;;;;25.61;34.23;101592.28;5060912;28;45318;-61
2022/08/11 03:07:38;;;;;;;;;15.75;14.75;;;;;25.59;34.59;101594.28;5045373;28;45181;-61
2022/08/11 03:10:41;;;;;;;;;16.50;14.25;;;;;25.59;34.53;101597.00;5061120;28;45461;-61
2022/08/11 03:19:30;;;;;;;;;11.75;11.75;;;;;25.49;34.56;101590.91;5050969;28;45301;-61
2022/08/11 03:22:04;;;;;;;;;14.50;13.00;;;;;25.48;34.46;101591.94;5060802;28;45414;-61
2022/08/11 03:24:45;;;;;;;;;12.50;12.50;;;;;25.47;34.32;101595.66;5059715;28;45429;-61
2022/08/11 03:27:46;;;;;;;;;14.50;11.75;;;;;25.41;34.70;101589.06;5040531;28;45478;-61
2022/08/11 03:30:14;;;;;;;;;13.75;12.00;;;;;25.40;34.79;101584.69;5048398;28;45295;-61
2022/08/11 03:36:26;;;;;;;;;11.00;11.00;;;;;25.33;34.81;101589.06;5063126;28;45232;-61
2022/08/11 03:38:54;;;;;;;;;12.50;12.00;;;;;25.32;34.78;101587.38;5064074;28;45245;-62
2022/08/11 03:41:46;;;;;;;;;14.75;13.00;;;;;25.26;34.65;101586.16;5064082;28;45350;-62
2022/08/11 03:44:36;;;;;;;;;10.50;9.75;;;;;25.29;34.81;101587.72;5064159;28;45241;-61
2022/08/11 03:47:30;;;;;;;;;12.50;11.50;;;;;25.29;34.92;101595.81;5064103;28;45319;-61
2022/08/11 03:50:12;;;;;;;;;12.25;12.25;;;;;25.29;35.04;101595.81;5063991;28;46110;-61
2022/08/11 03:53:01;;;;;;;;;13.00;11.75;;;;;25.26;34.42;101593.41;5063939;28;45230;-62
2022/08/11 03:55:36;;;;;;;;;12.25;12.25;;;;;25.24;35.09;101593.59;5063946;28;45311;-62
2022/08/11 03:58:20;;;;;;;;;14.75;12.25;;;;;25.19;35.00;101590.53;5064239;28;45272;-61
2022/08/11 04:01:25;;;;;;;;;16.25;13.50;;;;;25.19;34.87;101595.94;5063361;28;45296;-61
2022/08/11 04:04:17;;;;;;;;;12.50;11.00;;;;;25.19;34.84;101589.69;5063588;28;45329;-61
2022/08/11 04:07:18;;;;;;;;;13.75;12.50;;;;;25.17;34.87;101592.56;5061327;28;45473;-61
2022/08/11 04:09:56;;;;;;;;;12.00;11.25;;;;;25.15;35.11;101591.91;5063809;28;45314;-61
2022/08/11 04:13:01;;;;;;;;;13.00;11.50;;;;;25.13;34.72;101588.53;5063692;28;45487;-61
2022/08/11 04:16:04;;;;;;;;;18.75;14.00;;;;;25.10;35.32;101590.69;5063148;28;45408;-62
2022/08/11 04:18:44;;;;;;;;;12.75;11.25;;;;;25.04;35.02;101590.38;5035984;28;45539;-61
2022/08/11 04:21:45;;;;;;;;;18.25;13.25;;;;;25.03;35.34;101593.19;5063632;28;45322;-61
2022/08/11 04:24:31;;;;;;;;;11.50;11.00;;;;;25.00;35.05;101598.91;5063018;28;45322;-61
2022/08/11 04:27:16;;;;;;;;;12.00;9.75;;;;;24.97;35.63;101592.00;5050863;28;45421;-61
2022/08/11 04:29:50;;;;;;;;;13.00;10.75;;;;;24.95;35.43;101595.84;5063255;28;45396;-61
2022/08/11 04:32:18;;;;;;;;;17.75;13.75;;;;;24.94;35.18;101596.84;5063368;28;45420;-62
2022/08/11 04:35:06;;;;;;;;;12.75;11.50;;;;;24.93;35.65;101597.88;5062923;28;45353;-61
2022/08/11 04:37:55;;;;;;;;;14.25;13.00;;;;;24.90;35.78;101592.81;5063114;28;45393;-61
2022/08/11 04:40:37;;;;;;;;;11.50;10.25;;;;;24.89;35.78;101601.91;5063476;28;45232;-61
2022/08/11 04:43:20;;;;;;;;;13.25;12.00;;;;;24.86;35.92;101597.66;5058881;28;45618;-61
2022/08/11 04:45:52;;;;;;;;;13.50;11.25;;;;;24.84;35.35;101597.00;5057895;28;46329;-61
2022/08/11 05:07:44;;;;;;;;;11.00;11.00;;;;;24.69;35.75;101598.63;5021573;28;45392;-61
2022/08/11 05:10:28;;;;;;;;;13.25;10.00;;;;;24.66;36.31;101599.78;5058802;28;45259;-62
2022/08/11 05:27:09;;;;;;;;;13.50;12.00;;;;;24.63;36.17;101594.72;5062957;28;45368;-61
2022/08/11 05:36:04;;;;;;;;;11.25;11.25;;;;;24.56;36.18;101619.75;5064273;28;45579;-61
2022/08/11 05:58:02;;;;;;;;;15.75;13.25;;;;;24.72;36.31;101634.16;5061015;28;45410;-61
2022/08/11 06:00:29;;;;;;;;;14.00;12.00;;;;;24.76;36.05;101629.31;5061724;28;45401;-61
2022/08/11 06:03:00;;;;;;;;;10.00;9.50;;;;;24.79;36.17;101627.13;5062179;28;45628;-61
2022/08/11 06:05:36;;;;;;;;;16.25;14.00;;;;;24.87;36.63;101633.53;5061833;28;45423;-61
2022/08/11 06:08:06;;;;;;;;;13.25;12.00;;;;;24.92;35.88;101640.16;5061782;28;45329;-61
2022/08/11 06:10:38;;;;;;;;;13.25;12.25;;;;;24.99;36.08;101640.34;5061836;28;45300;-61
2022/08/11 06:13:07;;;;;;;;;13.75;11.00;;;;;25.05;36.42;101631.66;5061759;28;45236;-61
2022/08/11 06:15:42;;;;;;;;;9.75;9.75;;;;;25.11;36.37;101635.50;5061419;28;46579;-61
2022/08/11 06:18:10;;;;;;;;;13.00;12.25;;;;;25.17;35.85;101635.72;5061378;28;45418;-61
2022/08/11 06:20:46;;;;;;;;;13.50;10.50;;;;;25.21;36.09;101638.94;5061837;28;45398;-62
2022/08/11 06:23:14;;;;;;;;;13.25;11.50;;;;;25.26;35.83;101639.25;5061511;28;45313;-61
2022/08/11 06:25:40;;;;;;;;;15.00;11.00;;;;;25.28;35.52;101631.88;5051002;28;45255;-61
2022/08/11 06:28:07;;;;;;;;;10.50;9.50;;;;;25.33;35.77;101634.91;5041368;28;45291;-61
2022/08/11 06:30:40;;;;;;;;;12.25;11.25;;;;;25.39;35.51;101639.66;5041126;28;45272;-61
2022/08/11 06:33:15;;;;;;;;;12.75;10.00;;;;;25.45;35.93;101635.44;5067449;28;45413;-61
2022/08/11 06:35:50;;;;;;;;;12.50;12.50;;;;;25.51;35.77;101642.84;5040970;28;45405;-61
2022/08/11 06:38:46;;;;;;;;;13.00;11.75;;;;;25.60;35.03;101640.03;5048676;28;45247;-61
2022/08/11 06:41:29;;;;;;;;;12.75;12.25;;;;;25.73;35.14;101647.63;5061326;28;45512;-63
2022/08/11 06:44:12;;;;;;;;;15.00;11.25;;;;;25.89;35.04;101641.41;5061358;28;45585;-61
2022/08/11 06:46:42;;;;;;;;;16.00;12.25;;;;;26.09;35.33;101653.53;5060849;28;45488;-61
2022/08/11 06:52:00;;;;;;;;;13.25;12.50;;;;;26.26;34.89;101645.41;5061238;28;45320;-61
2022/08/11 06:54:34;;;;;;;;;15.25;12.50;;;;;26.31;34.81;101648.47;5059992;28;45602;-61
2022/08/11 07:02:33;;;;;;;;;13.00;12.25;;;;;26.45;34.37;101647.75;5061182;28;45445;-61
2022/08/11 07:05:09;;;;;;;;;10.75;10.75;;;;;26.49;34.27;101651.81;5061029;28;45429;-61
2022/08/11 07:16:29;;;;;;;;;16.00;12.50;;;;;26.71;33.79;101637.56;5041258;28;45210;-60
2022/08/11 07:30:10;;;;;;;;;10.00;10.00;;;;;26.90;33.12;101648.97;5047239;28;45774;-61
2022/08/11 07:32:51;;;;;;;;;10.50;9.25;;;;;26.95;33.44;101644.72;5068070;28;45503;-61
2022/08/11 07:35:24;;;;;;;;;9.75;9.50;;;;;27.00;33.13;101636.06;5067439;28;45242;-60
2022/08/11 07:37:57;;;;;;;;;10.00;9.75;;;;;27.06;32.83;101648.09;5070420;27;45476;-61
2022/08/11 07:40:24;;;;;;;;;11.75;10.00;;;;;27.10;32.75;101634.03;5053416;28;46046;-61
2022/08/11 07:42:51;;;;;;;;;11.00;10.50;;;;;27.13;32.60;101638.25;5055586;28;45534;-67
2022/08/11 07:53:34;;;;;;;;;12.75;9.75;;;;;27.06;31.94;101631.84;5038754;28;45665;-67
2022/08/11 07:56:01;;;;;;;;;8.75;8.75;;;;;27.08;31.68;101630.66;5045415;28;45327;-68
2022/08/11 08:17:57;;;;;;;;;10.25;9.50;;;;;27.41;30.90;101630.44;5065222;28;45407;-70
2022/08/11 08:20:29;;;;;;;;;10.75;10.75;;;;;27.48;30.68;101632.25;5046448;28;45612;-71
2022/08/11 08:23:01;;;;;;;;;9.75;8.50;;;;;27.50;30.57;101626.69;5061194;28;46005;-71
2022/08/11 08:25:32;;;;;;;;;13.25;9.50;;;;;27.54;30.87;101628.84;5052930;28;45478;-71
2022/08/11 08:28:00;;;;;;;;;8.75;8.75;;;;;27.60;30.71;101627.28;5056742;28;45413;-71
2022/08/11 08:30:46;;;;;;;;;11.25;8.25;;;;;27.65;30.35;101630.31;5057140;28;45620;-71
2022/08/11 08:33:17;;;;;;;;;9.75;9.50;;;;;27.67;30.71;101625.56;5057276;28;47191;-70
2022/08/11 08:35:44;;;;;;;;;6.75;6.75;;;;;27.72;30.48;101625.00;5061488;28;45500;-71
2022/08/11 08:38:11;;;;;;;;;11.25;10.00;;;;;27.77;30.47;101623.44;5060598;28;45948;-70
2022/08/11 08:40:41;;;;;;;;;10.50;8.75;;;;;27.79;30.71;101631.38;5062756;28;45687;-71
2022/08/11 08:43:10;;;;;;;;;13.75;10.25;;;;;27.82;30.34;101628.31;5062735;28;45497;-71
2022/08/11 08:45:38;;;;;;;;;11.75;9.25;;;;;27.88;30.55;101626.72;5058979;28;45606;-70
2022/08/11 08:48:15;;;;;;;;;10.00;9.75;;;;;27.92;30.26;101633.47;5058377;28;45391;-71
2022/08/11 08:53:40;;;;;;;;;7.00;7.00;;;;;28.00;30.22;101630.69;5061734;28;45374;-71
2022/08/11 08:56:09;;;;;;;;;10.25;10.25;;;;;28.04;30.03;101626.56;5062932;28;45389;-71
2022/08/11 08:58:37;;;;;;;;;7.50;7.25;;;;;28.10;30.30;101636.69;5062812;28;45377;-71
2022/08/11 09:01:04;;;;;;;;;9.50;6.75;;;;;28.14;30.40;101629.88;5061063;28;45444;-71
2022/08/11 09:03:31;;;;;;;;;9.00;7.25;;;;;28.22;30.01;101634.38;5061118;28;46902;-71
2022/08/11 09:05:57;;;;;;;;;8.50;7.00;;;;;28.27;30.11;101638.19;5058013;28;45398;-71
2022/08/11 09:08:23;;;;;;;;;9.50;8.00;;;;;28.34;29.74;101631.06;5057237;28;45270;-72
2022/08/11 09:11:48;;;;;;;;;7.75;7.75;;;;;28.42;29.94;101635.53;5062619;28;45472;-72
2022/08/11 09:13:36;;;;;;;;;9.00;8.00;;;;;28.54;30.03;101625.94;5061987;28;45812;-70
2022/08/11 09:16:05;;;;;;;;;13.75;10.75;;;;;28.64;29.69;101636.47;5062209;28;45350;-67
2022/08/11 09:18:31;;;;;;;;;10.25;9.00;;;;;28.73;29.70;101623.66;5062539;28;45321;-59
2022/08/11 09:20:57;;;;;;;;;7.75;6.25;;;;;28.81;29.74;101623.56;5062662;28;45387;-58
2022/08/11 09:28:54;;;;;;;;;7.25;6.00;;;;;29.11;29.20;101613.53;5062198;28;45432;-59
2022/08/11 09:31:21;;;;;;;;;9.75;7.25;;;;;29.22;29.14;101612.16;5061408;28;45444;-58
2022/08/11 09:33:51;;;;;;;;;6.75;6.00;;;;;29.32;29.25;101610.00;5061582;28;45403;-59
2022/08/11 09:41:49;;;;;;;;;11.00;9.00;;;;;29.62;28.44;101602.56;5061101;28;45311;-58
2022/08/11 09:47:02;;;;;;;;;6.25;5.50;;;;;29.81;28.33;101601.94;5062082;28;45474;-61
2022/08/11 09:49:28;;;;;;;;;7.25;5.50;;;;;29.89;28.26;101601.78;5061984;28;45330;-65
2022/08/11 09:51:55;;;;;;;;;6.00;6.00;;;;;29.97;28.40;101593.47;5061551;28;45258;-64
2022/08/11 09:54:23;;;;;;;;;7.00;6.50;;;;;30.04;27.21;101596.25;5060963;28;45326;-62
2022/08/11 09:59:37;;;;;;;;;7.50;7.25;;;;;30.19;27.25;101586.16;5061541;28;45322;-64
2022/08/11 10:02:05;;;;;;;;;6.50;6.50;;;;;30.31;27.28;101591.84;5061008;28;45313;-67
2022/08/11 10:04:41;;;;;;;;;9.00;7.25;;;;;30.39;27.23;101597.13;5061864;28;46124;-66
2022/08/11 10:07:09;;;;;;;;;8.75;6.00;;;;;30.46;27.04;101589.00;5069959;28;45244;-66
2022/08/11 10:09:36;;;;;;;;;5.50;4.50;;;;;30.49;27.09;101592.19;5069210;28;45435;-67
2022/08/11 10:12:07;;;;;;;;;7.25;7.25;;;;;30.51;26.43;101591.97;5065000;28;45580;-66
2022/08/11 10:17:21;;;;;;;;;7.75;6.75;;;;;30.63;26.51;101576.75;5071307;28;45509;-67
2022/08/11 10:19:49;;;;;;;;;8.00;5.00;;;;;30.70;25.89;101580.38;5066840;27;45270;-66
2022/08/11 10:27:57;;;;;;;;;6.75;6.75;;;;;30.88;26.05;101574.34;5061170;28;45485;-64
2022/08/11 10:35:58;;;;;;;;;6.50;6.50;;;;;31.03;25.24;101572.31;5061061;28;45822;-68
2022/08/11 10:38:25;;;;;;;;;10.50;9.00;;;;;31.06;25.11;101571.06;5059885;28;45378;-67
2022/08/11 10:43:01;;;;;;;;;10.50;7.00;;;;;31.10;24.82;101573.16;5060900;28;45426;-66
2022/08/11 10:43:40;;;;;;;;;6.50;6.50;;;;;31.11;24.90;101563.13;5060039;28;45469;-67
2022/08/11 10:48:55;;;;;;;;;8.50;7.00;;;;;31.13;24.67;101545.56;5061059;28;45488;-67
2022/08/11 10:59:42;;;;;;;;;6.50;5.75;;;;;31.27;24.43;101546.41;5050867;28;45326;-63
2022/08/11 11:02:13;;;;;;;;;13.00;8.50;;;;;31.32;24.29;101537.63;5059956;28;45393;-63
2022/08/11 11:04:55;;;;;;;;;7.25;7.25;;;;;31.35;24.20;101545.38;5060710;28;45422;-63
2022/08/11 11:07:29;;;;;;;;;9.25;7.25;;;;;31.41;23.83;101539.09;5063418;28;45535;-63
2022/08/11 11:10:00;;;;;;;;;10.25;7.25;;;;;31.45;24.10;101532.22;5060155;28;45619;-62
2022/08/11 11:18:24;;;;;;;;;9.00;7.00;;;;;31.52;24.13;101534.91;5065102;28;45814;-68
2022/08/11 11:21:13;;;;;;;;;9.75;7.00;;;;;31.52;24.33;101524.88;5060414;28;45399;-67
2022/08/11 11:24:00;;;;;;;;;8.00;7.00;;;;;31.54;23.90;101513.78;5060171;28;45263;-70
2022/08/11 11:26:57;;;;;;;;;11.00;9.50;;;;;31.56;23.95;101511.66;5043563;28;45319;-69
2022/08/11 11:29:30;;;;;;;;;6.00;6.00;;;;;31.55;24.07;101508.09;5040205;28;46237;-67
2022/08/11 11:32:05;;;;;;;;;8.75;7.00;;;;;31.53;23.81;101499.31;5059880;28;45691;-63
2022/08/11 11:34:49;;;;;;;;;6.75;6.75;;;;;31.63;24.08;101509.78;5062561;28;45331;-63
2022/08/11 11:37:16;;;;;;;;;7.00;6.50;;;;;31.83;23.81;101513.31;5060508;28;45239;-62
2022/08/11 11:39:42;;;;;;;;;5.75;5.75;;;;;31.99;23.93;101508.47;5058935;28;45315;-62
2022/08/11 11:42:09;;;;;;;;;7.25;6.00;;;;;32.11;23.91;101507.59;5061458;28;45265;-62
2022/08/11 11:44:42;;;;;;;;;6.50;6.50;;;;;32.21;23.80;101499.81;5041681;27;45504;-63
2022/08/11 11:47:11;;;;;;;;;7.00;7.00;;;;;32.28;23.59;101499.78;5038762;28;45289;-62
2022/08/11 11:49:39;;;;;;;;;7.00;7.00;;;;;32.36;23.59;101496.84;5046846;28;46439;-61
2022/08/11 11:52:07;;;;;;;;;8.25;7.00;;;;;32.43;23.20;101491.38;5068288;28;45247;-60
2022/08/11 11:54:35;;;;;;;;;11.00;7.75;;;;;32.45;23.46;101492.81;5070430;27;45260;-62
2022/08/11 12:02:36;;;;;;;;;7.25;7.25;;;;;32.44;22.72;101499.31;5070635;28;45437;-63
2022/08/11 12:05:02;;;;;;;;;7.25;7.00;;;;;32.46;23.24;101494.47;5063139;28;45405;-63
2022/08/11 12:10:15;;;;;;;;;7.50;7.50;;;;;32.61;22.93;101477.84;5062153;28;45723;-63
2022/08/11 12:15:26;;;;;;;;;7.75;7.75;;;;;32.71;22.58;101478.22;5063043;28;45389;-62
2022/08/11 12:17:51;;;;;;;;;11.50;8.50;;;;;32.76;22.82;101492.03;5063563;28;45312;-63
2022/08/11 12:20:20;;;;;;;;;11.00;8.75;;;;;32.74;22.80;101471.47;5063555;28;45350;-63
2022/08/11 12:28:17;;;;;;;;;9.50;8.00;;;;;32.87;22.29;101471.44;5043221;28;45315;-62
2022/08/11 12:30:46;;;;;;;;;14.00;8.00;;;;;32.90;22.47;101464.69;5042580;28;46283;-62
2022/08/11 12:33:13;;;;;;;;;10.00;8.00;;;;;32.90;22.34;101468.25;5042857;28;45261;-62
2022/08/11 12:35:40;;;;;;;;;8.75;8.00;;;;;32.94;22.08;101468.63;5042838;28;45309;-61
2022/08/11 12:38:07;;;;;;;;;6.50;6.50;;;;;32.96;22.06;101463.81;5043069;28;45395;-62
2022/08/11 12:46:18;;;;;;;;;9.25;8.50;;;;;32.99;21.85;101450.53;5042213;28;45514;-62
2022/08/11 12:51:57;;;;;;;;;8.00;7.50;;;;;33.09;21.74;101439.09;5052385;28;45786;-62
2022/08/11 12:54:33;;;;;;;;;13.00;7.50;;;;;33.18;21.63;101436.94;5062722;28;45577;-62
2022/08/11 13:05:24;;;;;;;;;10.00;9.00;;;;;33.30;21.88;101437.88;5062370;28;45321;-62
2022/08/11 13:07:51;;;;;;;;;6.00;6.00;;;;;33.37;22.23;101435.97;5062266;28;45254;-63
2022/08/11 13:13:05;;;;;;;;;6.00;6.00;;;;;33.44;22.11;101422.25;5062492;28;45264;-66
2022/08/11 13:15:31;;;;;;;;;7.00;6.75;;;;;33.47;21.83;101430.81;5062265;28;46491;-65
2022/08/11 13:17:59;;;;;;;;;9.00;7.00;;;;;33.46;22.37;101415.50;5062309;28;45251;-65
2022/08/11 13:20:26;;;;;;;;;8.75;7.50;;;;;33.48;21.81;101421.56;5066876;28;45274;-63
2022/08/11 13:22:55;;;;;;;;;12.50;10.25;;;;;33.45;21.97;101430.22;5041262;28;45971;-63
2022/08/11 13:25:23;;;;;;;;;8.00;7.25;;;;;33.48;21.92;101437.94;5059596;28;45308;-63
2022/08/11 13:27:51;;;;;;;;;9.25;9.25;;;;;33.47;21.97;101419.06;5062144;28;45331;-63
2022/08/11 13:33:04;;;;;;;;;8.00;8.00;;;;;33.54;21.45;101430.75;5062292;28;45709;-65
2022/08/11 13:35:31;;;;;;;;;8.50;7.75;;;;;33.55;21.66;101435.97;5062340;28;45160;-63
2022/08/11 13:38:35;;;;;;;;;6.50;6.50;;;;;33.57;21.09;101422.09;5070008;28;45446;-62
2022/08/11 13:41:01;;;;;;;;;8.75;7.25;;;;;33.62;21.48;101416.78;5055372;28;45539;-63
2022/08/11 13:43:27;;;;;;;;;10.00;8.75;;;;;33.66;21.32;101411.72;5042016;28;46009;-64
2022/08/11 13:46:17;;;;;;;;;12.00;8.75;;;;;33.70;21.34;101418.41;5041428;28;45384;-65
2022/08/11 13:48:41;;;;;;;;;6.25;5.25;;;;;33.66;21.35;101417.19;5041953;28;45457;-66
2022/08/11 13:53:53;;;;;;;;;8.00;8.00;;;;;33.63;21.14;101406.69;5041153;28;45434;-64
2022/08/11 13:56:23;;;;;;;;;8.25;7.25;;;;;33.60;21.27;101405.25;5041689;28;45443;-65
2022/08/11 13:58:50;;;;;;;;;11.75;8.50;;;;;33.56;21.69;101410.31;5041689;28;45561;-64
2022/08/11 14:01:18;;;;;;;;;6.50;5.00;;;;;33.51;21.23;101407.47;5039904;28;45601;-63
2022/08/11 14:03:47;;;;;;;;;9.00;7.25;;;;;33.48;21.75;101401.59;5041461;28;45630;-64
2022/08/11 14:06:13;;;;;;;;;12.50;10.75;;;;;33.44;21.51;101403.97;5041635;28;45362;-63
2022/08/11 14:08:41;;;;;;;;;9.75;9.75;;;;;33.43;21.06;101415.94;5041717;28;45329;-63
2022/08/11 14:13:55;;;;;;;;;8.75;8.75;;;;;33.37;21.19;101413.25;5066850;28;45332;-64
2022/08/11 14:16:34;;;;;;;;;7.25;6.00;;;;;33.34;21.20;101400.88;5066401;27;45322;-64
2022/08/11 14:19:04;;;;;;;;;10.00;8.00;;;;;33.28;21.43;101380.78;5069722;28;45548;-65
2022/08/11 14:24:20;;;;;;;;;9.50;8.50;;;;;33.25;21.64;101394.84;5064463;28;45237;-65
2022/08/11 14:26:50;;;;;;;;;8.25;6.00;;;;;33.32;21.06;101397.53;5071163;28;45180;-65
2022/08/11 14:29:20;;;;;;;;;7.25;7.25;;;;;33.32;21.69;101384.72;5062649;27;45350;-66
2022/08/11 14:31:53;;;;;;;;;7.25;7.25;;;;;33.38;21.67;101371.25;5059649;28;45450;-63
2022/08/11 14:34:22;;;;;;;;;7.50;7.50;;;;;33.37;21.31;101373.16;5065814;28;46200;-63
2022/08/11 14:36:54;;;;;;;;;7.75;7.75;;;;;33.37;21.39;101378.59;5071517;28;45268;-64
2022/08/11 14:39:27;;;;;;;;;8.00;8.00;;;;;33.38;21.16;101380.28;5064654;28;45199;-64
2022/08/11 14:47:32;;;;;;;;;10.00;7.50;;;;;33.50;20.63;101359.34;5061204;28;45245;-64
2022/08/11 14:49:59;;;;;;;;;7.50;6.75;;;;;33.48;21.07;101355.16;5059307;28;45397;-64
2022/08/11 14:52:26;;;;;;;;;7.00;6.50;;;;;33.49;20.99;101351.34;5058481;28;45351;-64
2022/08/11 14:57:39;;;;;;;;;9.50;9.25;;;;;33.44;21.11;101343.88;5040932;28;45244;-65
2022/08/11 15:00:08;;;;;;;;;11.00;10.00;;;;;33.49;20.66;101351.34;5040472;28;45434;-65
2022/08/11 15:05:23;;;;;;;;;7.25;7.25;;;;;33.54;21.34;101352.34;5060807;28;45696;-66
2022/08/11 15:07:54;;;;;;;;;8.75;8.00;;;;;33.54;20.58;101346.91;5060808;28;45235;-67
2022/08/11 15:10:21;;;;;;;;;10.75;9.75;;;;;33.56;20.69;101333.00;5060955;28;45276;-66
2022/08/11 15:12:47;;;;;;;;;12.75;8.50;;;;;33.57;21.02;101331.94;5061101;28;45346;-65
2022/08/11 15:18:03;;;;;;;;;7.25;7.25;;;;;33.56;20.91;101324.81;5060647;28;45327;-67
2022/08/11 15:26:14;;;;;;;;;9.75;9.25;;;;;33.72;21.48;101332.38;5060811;28;45265;-67
2022/08/11 15:45:52;;;;;;;;;10.50;9.00;;;;;33.62;20.90;101314.88;5056769;28;45367;-70
2022/08/11 15:48:27;;;;;;;;;8.75;8.75;;;;;33.58;20.29;101311.78;5064232;28;45437;-67
2022/08/11 15:50:57;;;;;;;;;10.00;10.00;;;;;33.53;20.54;101309.72;5063868;28;45277;-67
2022/08/11 15:53:25;;;;;;;;;9.75;9.00;;;;;33.56;20.53;101316.59;5064117;28;45227;-69
2022/08/11 15:55:52;;;;;;;;;6.75;6.75;;;;;33.54;20.84;101314.09;5060202;28;45319;-63
2022/08/11 16:04:10;;;;;;;;;8.00;7.00;;;;;33.51;20.72;101300.91;5068376;28;45258;-64
2022/08/11 16:06:58;;;;;;;;;9.75;8.75;;;;;33.44;20.75;101296.59;5070492;28;45427;-63
2022/08/11 16:09:37;;;;;;;;;11.50;9.00;;;;;33.49;20.50;101304.91;5060404;28;45466;-68
2022/08/11 16:12:06;;;;;;;;;9.25;9.00;;;;;33.52;20.58;101309.94;5063524;27;45473;-67
2022/08/11 16:17:25;;;;;;;;;7.00;7.00;;;;;33.49;20.99;101297.56;5055051;28;45330;-68
2022/08/11 16:19:54;;;;;;;;;7.25;7.25;;;;;33.45;20.70;101301.81;5059627;28;45411;-67
2022/08/11 16:22:26;;;;;;;;;8.50;8.50;;;;;33.41;21.07;101311.53;5063946;28;45369;-68
2022/08/11 16:24:53;;;;;;;;;7.00;6.75;;;;;33.37;20.03;101299.41;5058639;28;45176;-68
2022/08/11 16:27:20;;;;;;;;;8.75;8.00;;;;;33.33;20.10;101306.34;5054693;28;45470;-66
2022/08/11 16:29:49;;;;;;;;;6.00;5.00;;;;;33.29;20.67;101305.97;5063222;28;46285;-67
2022/08/11 16:32:22;;;;;;;;;8.00;8.00;;;;;33.31;20.79;101300.28;5063440;28;45242;-68
2022/08/11 16:40:24;;;;;;;;;7.25;6.50;;;;;33.31;20.41;101292.09;5063216;28;45239;-66
2022/08/11 16:48:22;;;;;;;;;10.25;9.25;;;;;33.23;20.27;101284.19;5063260;28;45394;-67
2022/08/11 16:50:48;;;;;;;;;8.50;8.50;;;;;33.24;21.16;101270.31;5062712;28;46214;-67
2022/08/11 16:53:16;;;;;;;;;7.00;7.00;;;;;33.25;21.25;101280.16;5063055;28;45391;-66